createdAt,value
2022-10-11T00:01:21.171Z,12.14
2022-10-11T00:03:47.798Z,12.10
2022-10-11T00:06:14.409Z,12.25
2022-10-11T00:08:41.004Z,12.32
2022-10-11T00:11:08.600Z,12.34
2022-10-11T00:13:36.102Z,12.35
2022-10-11T00:16:08.499Z,12.28
2022-10-11T00:18:35.396Z,12.20
2022-10-11T00:21:06.842Z,12.13
2022-10-11T00:23:33.633Z,12.09
2022-10-11T00:26:02.675Z,12.13
2022-10-11T00:28:37.628Z,12.13
2022-10-11T00:31:11.133Z,12.07
2022-10-11T00:33:37.765Z,12.06
2022-10-11T00:36:05.087Z,12.15
2022-10-11T00:38:32.216Z,12.12
2022-10-11T00:40:59.854Z,12.11
2022-10-11T00:43:29.057Z,12.04
2022-10-11T00:45:55.604Z,11.89
2022-10-11T00:48:29.846Z,11.90
2022-10-11T00:50:58.390Z,11.90
2022-10-11T00:53:25.742Z,11.86
2022-10-11T00:55:57.919Z,11.77
2022-10-11T00:58:24.972Z,11.81
2022-10-11T01:00:51.979Z,11.78
2022-10-11T01:03:20.491Z,11.73
2022-10-11T01:05:47.463Z,11.70
2022-10-11T01:08:14.048Z,11.64
2022-10-11T01:10:40.822Z,11.59
2022-10-11T01:13:20.998Z,11.55
2022-10-11T01:15:57.063Z,11.52
2022-10-11T01:18:52.065Z,11.43
2022-10-11T01:21:31.277Z,11.35
2022-10-11T01:24:08.900Z,11.38
2022-10-11T01:26:53.843Z,11.36
2022-10-11T01:30:17.281Z,11.13
2022-10-11T01:33:28.855Z,11.09
2022-10-11T01:35:58.319Z,11.03
2022-10-11T01:38:33.389Z,10.94
2022-10-11T01:41:04.807Z,10.91
2022-10-11T01:43:31.927Z,10.93
2022-10-11T01:46:00.268Z,10.90
2022-10-11T01:48:26.852Z,10.89
2022-10-11T01:50:56.098Z,10.92
2022-10-11T01:53:31.527Z,10.96
2022-10-11T01:56:09.434Z,10.97
2022-10-11T01:58:45.027Z,10.77
2022-10-11T02:01:24.431Z,10.74
2022-10-11T02:04:11.210Z,10.64
2022-10-11T02:07:01.648Z,10.70
2022-10-11T02:09:35.456Z,10.66
2022-10-11T02:12:05.950Z,10.58
2022-10-11T02:14:35.909Z,10.71
2022-10-11T02:17:07.745Z,10.46
2022-10-11T02:19:41.756Z,10.41
2022-10-11T02:22:19.683Z,10.41
2022-10-11T02:24:49.447Z,10.41
2022-10-11T02:27:18.029Z,10.43
2022-10-11T02:29:45.589Z,10.50
2022-10-11T02:32:13.412Z,10.44
2022-10-11T02:34:51.333Z,10.43
2022-10-11T02:37:41.399Z,10.21
2022-10-11T02:40:21.347Z,10.24
2022-10-11T02:43:01.412Z,10.26
2022-10-11T02:45:31.597Z,10.38
2022-10-11T02:47:58.544Z,10.29
2022-10-11T02:50:25.169Z,10.31
2022-10-11T02:52:51.772Z,10.31
2022-10-11T02:55:18.512Z,10.31
2022-10-11T02:57:45.148Z,10.23
2022-10-11T03:00:12.378Z,10.18
2022-10-11T03:02:44.981Z,10.29
2022-10-11T03:05:11.613Z,10.22
2022-10-11T03:07:38.375Z,10.25
2022-10-11T03:10:06.168Z,10.15
2022-10-11T03:12:32.806Z,10.13
2022-10-11T03:14:59.428Z,10.23
2022-10-11T03:17:42.043Z,10.24
2022-10-11T03:20:09.036Z,10.19
2022-10-11T03:22:35.695Z,10.10
2022-10-11T03:25:04.428Z,10.11
2022-10-11T03:27:32.744Z,10.07
2022-10-11T03:29:59.570Z,10.09
2022-10-11T03:32:26.202Z,10.03
2022-10-11T03:34:52.945Z,9.81
2022-10-11T03:37:19.565Z,9.58
2022-10-11T03:39:46.211Z,9.66
2022-10-11T03:42:13.563Z,9.74
2022-10-11T03:44:41.764Z,9.74
2022-10-11T03:47:08.831Z,9.75
2022-10-11T03:49:38.843Z,9.69
2022-10-11T03:52:09.422Z,9.77
2022-10-11T03:54:36.051Z,9.81
2022-10-11T03:57:02.669Z,9.81
2022-10-11T03:59:29.325Z,9.78
2022-10-11T04:01:56.067Z,9.75
2022-10-11T04:04:22.721Z,9.61
2022-10-11T04:06:49.670Z,9.54
2022-10-11T04:09:16.290Z,9.45
2022-10-11T04:11:42.926Z,9.42
2022-10-11T04:14:09.549Z,9.32
2022-10-11T04:16:38.744Z,9.22
2022-10-11T04:19:05.485Z,9.24
2022-10-11T04:21:32.258Z,9.22
2022-10-11T04:23:58.881Z,9.31
2022-10-11T04:26:25.495Z,9.36
2022-10-11T04:28:55.205Z,9.44
2022-10-11T04:31:21.969Z,9.35
2022-10-11T04:33:54.710Z,9.29
2022-10-11T04:36:21.298Z,9.24
2022-10-11T04:38:47.930Z,9.20
2022-10-11T04:41:14.911Z,9.18
2022-10-11T04:43:41.908Z,9.18
2022-10-11T04:46:09.921Z,9.18
2022-10-11T04:48:37.159Z,9.06
2022-10-11T04:51:03.877Z,9.08
2022-10-11T04:53:30.601Z,9.00
2022-10-11T04:55:58.603Z,9.10
2022-10-11T04:58:25.320Z,9.07
2022-10-11T05:00:51.986Z,8.89
2022-10-11T05:03:18.631Z,8.92
2022-10-11T05:05:45.273Z,8.80
2022-10-11T05:08:12.324Z,8.79
2022-10-11T05:10:38.967Z,8.86
2022-10-11T05:13:05.718Z,8.99
2022-10-11T05:15:32.669Z,8.96
2022-10-11T05:17:59.381Z,8.93
2022-10-11T05:20:26.252Z,9.02
2022-10-11T05:22:52.864Z,8.94
2022-10-11T05:25:19.447Z,8.95
2022-10-11T05:27:46.057Z,8.91
2022-10-11T05:30:12.832Z,8.61
2022-10-11T05:32:39.474Z,8.63
2022-10-11T05:35:07.095Z,8.77
2022-10-11T05:37:33.732Z,8.83
2022-10-11T05:40:00.329Z,8.79
2022-10-11T05:42:26.922Z,8.78
2022-10-11T05:44:53.561Z,8.82
2022-10-11T05:47:20.184Z,8.81
2022-10-11T05:49:46.819Z,8.82
2022-10-11T05:52:13.781Z,8.81
2022-10-11T05:54:40.528Z,8.73
2022-10-11T05:57:07.152Z,8.65
2022-10-11T05:59:35.386Z,8.63
2022-10-11T06:02:02.103Z,8.75
2022-10-11T06:04:28.823Z,8.78
2022-10-11T06:06:55.510Z,8.58
2022-10-11T06:09:22.179Z,8.40
2022-10-11T06:11:48.883Z,8.59
2022-10-11T06:14:15.552Z,8.67
2022-10-11T06:16:42.194Z,8.86
2022-10-11T06:19:09.002Z,8.79
2022-10-11T06:21:35.763Z,8.82
2022-10-11T06:24:02.775Z,8.82
2022-10-11T06:26:29.789Z,8.87
2022-10-11T06:28:56.919Z,8.98
2022-10-11T06:31:23.678Z,9.00
2022-10-11T06:33:50.417Z,8.96
2022-10-11T06:36:17.564Z,8.89
2022-10-11T06:38:45.349Z,8.96
2022-10-11T06:41:22.118Z,8.93
2022-10-11T06:43:51.667Z,8.95
2022-10-11T06:46:20.157Z,8.99
2022-10-11T06:48:47.820Z,9.08
2022-10-11T06:51:16.179Z,9.04
2022-10-11T06:53:43.263Z,9.03
2022-10-11T06:56:12.092Z,9.09
2022-10-11T06:58:39.817Z,9.13
2022-10-11T07:01:09.128Z,9.13
2022-10-11T07:03:36.112Z,9.22
2022-10-11T07:06:08.020Z,9.25
2022-10-11T07:08:35.380Z,9.27
2022-10-11T07:11:22.516Z,9.35
2022-10-11T07:13:51.284Z,9.42
2022-10-11T07:16:18.470Z,9.56
2022-10-11T07:18:45.473Z,9.63
2022-10-11T07:21:14.960Z,9.58
2022-10-11T07:23:42.617Z,9.56
2022-10-11T07:26:10.334Z,9.55
2022-10-11T07:28:37.985Z,9.56
2022-10-11T07:31:13.795Z,9.66
2022-10-11T07:33:40.682Z,9.87
2022-10-11T07:36:08.145Z,10.03
2022-10-11T07:38:35.758Z,10.04
2022-10-11T07:41:06.216Z,10.19
2022-10-11T07:43:33.218Z,10.24
2022-10-11T07:46:05.125Z,10.29
2022-10-11T07:48:35.656Z,10.36
2022-10-11T07:51:11.140Z,10.49
2022-10-11T07:53:42.891Z,10.33
2022-10-11T07:56:12.574Z,10.38
2022-10-11T07:58:40.504Z,10.39
2022-10-11T08:01:07.732Z,10.44
2022-10-11T08:03:34.702Z,10.57
2022-10-11T08:06:07.469Z,10.60
2022-10-11T08:08:34.469Z,10.70
2022-10-11T08:11:01.208Z,10.75
2022-10-11T08:13:28.010Z,10.86
2022-10-11T08:15:54.879Z,10.93
2022-10-11T08:18:21.769Z,11.07
2022-10-11T08:20:48.849Z,11.16
2022-10-11T08:23:16.938Z,11.18
2022-10-11T08:25:46.246Z,11.15
2022-10-11T08:28:17.048Z,11.22
2022-10-11T08:30:51.038Z,11.27
2022-10-11T08:33:18.650Z,11.27
2022-10-11T08:35:45.521Z,11.33
2022-10-11T08:38:12.561Z,11.36
2022-10-11T08:40:55.397Z,11.38
2022-10-11T08:43:43.862Z,11.46
2022-10-11T08:46:11.081Z,11.57
2022-10-11T08:48:48.852Z,11.60
2022-10-11T08:51:39.372Z,11.70
2022-10-11T08:54:21.029Z,11.87
2022-10-11T08:56:47.736Z,11.91
2022-10-11T08:59:29.690Z,11.76
2022-10-11T09:02:13.459Z,11.78
2022-10-11T09:04:40.143Z,11.88
2022-10-11T09:07:39.609Z,12.04
2022-10-11T09:10:09.626Z,12.14
2022-10-11T09:13:01.130Z,12.20
2022-10-11T09:15:56.916Z,12.26
2022-10-11T09:18:26.656Z,12.35
2022-10-11T09:20:53.274Z,12.40
2022-10-11T09:24:08.153Z,12.54
2022-10-11T09:26:51.863Z,12.72
2022-10-11T09:29:25.121Z,12.74
2022-10-11T09:31:54.328Z,12.78
2022-10-11T09:34:23.963Z,12.87
2022-10-11T09:36:58.189Z,12.81
2022-10-11T09:39:29.412Z,12.91
2022-10-11T09:42:01.551Z,12.91
2022-10-11T09:44:39.583Z,12.95
2022-10-11T09:47:07.051Z,13.08
2022-10-11T09:49:41.357Z,13.16
2022-10-11T09:52:15.509Z,13.20
2022-10-11T09:54:48.236Z,13.21
2022-10-11T09:57:36.556Z,13.28
2022-10-11T10:00:12.306Z,13.42
2022-10-11T10:02:47.215Z,13.52
2022-10-11T10:05:25.724Z,13.71
2022-10-11T10:08:20.440Z,13.80
2022-10-11T10:10:59.410Z,13.92
2022-10-11T10:13:46.204Z,14.02
2022-10-11T10:16:27.754Z,13.97
2022-10-11T10:19:16.330Z,13.94
2022-10-11T10:21:49.162Z,14.16
2022-10-11T10:24:33.976Z,14.67
2022-10-11T10:27:08.587Z,15.17
2022-10-11T10:29:36.084Z,15.54
2022-10-11T10:32:14.975Z,15.77
2022-10-11T10:34:55.852Z,16.23
2022-10-11T10:37:25.374Z,16.46
2022-10-11T10:39:59.344Z,17.08
2022-10-11T10:42:25.993Z,17.02
2022-10-11T10:45:00.120Z,17.49
2022-10-11T10:47:51.627Z,17.14
2022-10-11T10:50:39.948Z,17.17
2022-10-11T10:53:20.398Z,17.31
2022-10-11T10:56:02.436Z,17.86
2022-10-11T10:59:11.038Z,18.06
2022-10-11T11:01:50.185Z,17.58
2022-10-11T11:04:32.441Z,17.79
2022-10-11T11:07:03.386Z,17.89
2022-10-11T11:09:37.957Z,18.10
2022-10-11T11:12:14.413Z,17.68
2022-10-11T11:14:59.417Z,17.24
2022-10-11T11:17:42.625Z,16.94
2022-10-11T11:20:21.647Z,16.98
2022-10-11T11:23:01.101Z,17.36
2022-10-11T11:25:44.538Z,17.34
2022-10-11T11:28:39.027Z,16.99
2022-10-11T11:31:40.941Z,16.95
2022-10-11T11:34:22.397Z,16.99
2022-10-11T11:36:56.607Z,16.76
2022-10-11T11:39:28.738Z,16.78
2022-10-11T11:42:05.013Z,16.87
2022-10-11T11:44:34.363Z,16.67
2022-10-11T11:47:04.390Z,16.58
2022-10-11T11:49:37.201Z,17.17
2022-10-11T11:52:08.497Z,17.83
2022-10-11T11:54:50.270Z,17.82
2022-10-11T11:57:48.872Z,17.54
2022-10-11T12:00:24.182Z,17.53
2022-10-11T12:02:54.927Z,17.39
2022-10-11T12:05:25.894Z,17.39
2022-10-11T12:10:49.931Z,17.15
2022-10-11T12:14:13.837Z,16.84
2022-10-11T12:23:00.615Z,16.39
2022-10-11T12:25:27.211Z,16.48
2022-10-11T12:27:56.534Z,16.41
2022-10-11T12:30:47.046Z,16.20
2022-10-11T12:33:16.568Z,16.18
2022-10-11T12:35:57.460Z,16.44
2022-10-11T12:38:31.355Z,16.27
2022-10-11T12:41:02.286Z,16.22
2022-10-11T12:43:36.355Z,16.30
2022-10-11T12:46:47.379Z,16.58
2022-10-11T12:49:36.418Z,16.91
2022-10-11T12:52:05.137Z,17.18
2022-10-11T12:54:37.646Z,17.41
2022-10-11T13:07:23.500Z,18.42
2022-10-11T13:10:11.409Z,18.25
2022-10-11T13:12:42.069Z,18.40
2022-10-11T13:15:14.907Z,18.59
2022-10-11T13:17:41.984Z,18.71
2022-10-11T13:20:18.147Z,18.35
2022-10-11T13:22:51.604Z,18.18
2022-10-11T13:25:37.329Z,18.41
2022-10-11T13:28:04.145Z,18.54
2022-10-11T13:30:34.422Z,18.34
2022-10-11T13:33:01.814Z,18.12
2022-10-11T13:35:32.399Z,18.27
2022-10-11T13:37:59.590Z,18.09
2022-10-11T13:40:27.212Z,17.71
2022-10-11T13:42:56.772Z,17.26
2022-10-11T13:45:25.740Z,16.84
2022-10-11T13:47:53.756Z,16.55
2022-10-11T13:50:30.610Z,16.43
2022-10-11T13:53:09.845Z,16.41
2022-10-11T13:55:42.600Z,16.75
2022-10-11T13:58:19.303Z,17.08
2022-10-11T14:00:57.168Z,17.41
2022-10-11T14:03:27.002Z,17.72
2022-10-11T14:06:04.636Z,17.86
2022-10-11T14:08:38.306Z,18.47
2022-10-11T14:11:06.896Z,18.82
2022-10-11T14:13:44.156Z,19.14
2022-10-11T14:16:29.596Z,19.34
2022-10-11T14:18:59.117Z,19.61
2022-10-11T14:21:47.276Z,19.61
2022-10-11T14:24:16.095Z,19.27
2022-10-11T14:26:44.211Z,19.00
2022-10-11T14:29:26.557Z,18.97
2022-10-11T14:31:59.035Z,18.86
2022-10-11T14:34:26.029Z,18.69
2022-10-11T14:36:53.719Z,18.77
2022-10-11T14:39:25.654Z,18.88
2022-10-11T14:41:52.887Z,19.02
2022-10-11T14:44:21.074Z,18.80
2022-10-11T14:46:49.317Z,18.65
2022-10-11T14:49:20.407Z,18.63
2022-10-11T14:51:48.936Z,18.53
2022-10-11T14:54:18.091Z,18.16
2022-10-11T14:56:45.733Z,18.02
2022-10-11T14:59:15.378Z,18.02
2022-10-11T15:01:42.317Z,18.23
2022-10-11T15:04:09.236Z,18.33
2022-10-11T15:06:38.366Z,18.38
2022-10-11T15:09:06.326Z,18.44
2022-10-11T15:11:43.536Z,18.25
2022-10-11T15:14:10.199Z,18.22
2022-10-11T15:16:36.978Z,18.06
2022-10-11T15:19:24.904Z,17.99
2022-10-11T15:21:51.878Z,18.16
2022-10-11T15:24:21.612Z,18.18
2022-10-11T15:26:49.008Z,18.08
2022-10-11T15:29:17.959Z,18.08
2022-10-11T15:31:49.932Z,18.17
2022-10-11T15:34:17.088Z,18.11
2022-10-11T15:36:44.309Z,17.86
2022-10-11T15:39:24.693Z,17.79
2022-10-11T15:41:57.766Z,17.76
2022-10-11T15:44:24.695Z,17.71
2022-10-11T15:47:01.703Z,17.66
2022-10-11T15:49:28.863Z,17.70
2022-10-11T15:51:55.516Z,17.89
2022-10-11T15:54:22.253Z,17.86
2022-10-11T15:56:48.876Z,17.75
2022-10-11T15:59:15.518Z,17.66
2022-10-11T16:01:42.312Z,17.58
2022-10-11T16:04:09.733Z,17.36
2022-10-11T16:06:38.742Z,17.39
2022-10-11T16:09:05.448Z,17.44
2022-10-11T16:11:32.042Z,17.59
2022-10-11T16:13:58.667Z,17.41
2022-10-11T16:16:25.268Z,17.24
2022-10-11T16:18:51.859Z,16.97
2022-10-11T16:21:20.479Z,16.85
2022-10-11T16:23:47.029Z,16.69
2022-10-11T16:26:14.036Z,16.57
2022-10-11T16:28:47.681Z,16.46
2022-10-11T16:31:21.044Z,16.34
2022-10-11T16:33:48.122Z,16.35
2022-10-11T16:36:32.082Z,16.26
2022-10-11T16:38:59.374Z,16.19
2022-10-11T16:41:25.988Z,16.09
2022-10-11T16:43:54.576Z,16.02
2022-10-11T16:46:22.165Z,15.95
2022-10-11T16:48:49.042Z,15.83
2022-10-11T16:51:15.682Z,15.79
2022-10-11T16:53:42.377Z,15.71
2022-10-11T16:56:10.088Z,15.60
2022-10-11T16:58:36.951Z,15.54
2022-10-11T17:01:08.813Z,15.38
2022-10-11T17:03:35.602Z,15.25
2022-10-11T17:06:02.617Z,15.25
2022-10-11T17:08:29.529Z,15.15
2022-10-11T17:10:57.759Z,15.09
2022-10-11T17:13:24.817Z,15.05
2022-10-11T17:15:51.575Z,14.99
2022-10-11T17:18:23.283Z,14.98
2022-10-11T17:20:50.035Z,14.89
2022-10-11T17:23:16.637Z,14.84
2022-10-11T17:25:45.106Z,14.90
2022-10-11T17:28:17.769Z,14.72
2022-10-11T17:30:53.428Z,14.68
2022-10-11T17:33:20.023Z,14.71
2022-10-11T17:35:46.702Z,14.52
2022-10-11T17:38:13.268Z,14.48
2022-10-11T17:40:39.931Z,14.54
2022-10-11T17:43:06.539Z,14.54
2022-10-11T17:45:33.153Z,14.49
2022-10-11T17:48:00.700Z,14.46
2022-10-11T17:50:27.358Z,14.36
2022-10-11T17:52:53.988Z,14.32
2022-10-11T17:55:20.686Z,14.17
2022-10-11T17:57:47.359Z,14.19
2022-10-11T18:00:14.602Z,14.09
2022-10-11T18:02:41.728Z,14.08
2022-10-11T18:05:08.791Z,13.99
2022-10-11T18:07:35.403Z,13.94
2022-10-11T18:10:02.049Z,13.85
2022-10-11T18:12:28.840Z,13.87
2022-10-11T18:14:55.424Z,13.88
2022-10-11T18:17:22.038Z,13.82
2022-10-11T18:19:48.690Z,13.77
2022-10-11T18:22:15.417Z,13.74
2022-10-11T18:24:41.976Z,13.71
2022-10-11T18:27:08.644Z,13.64
2022-10-11T18:29:35.261Z,13.60
2022-10-11T18:32:01.832Z,13.61
2022-10-11T18:34:28.418Z,13.56
2022-10-11T18:36:55.382Z,13.54
2022-10-11T18:39:22.196Z,13.50
2022-10-11T18:41:48.828Z,13.45
2022-10-11T18:44:15.877Z,13.47
2022-10-11T18:46:42.940Z,13.36
2022-10-11T18:49:09.928Z,13.27
2022-10-11T18:51:38.592Z,13.33
2022-10-11T18:54:06.180Z,13.27
2022-10-11T18:56:34.683Z,13.28
2022-10-11T18:59:01.399Z,13.23
2022-10-11T19:01:30.752Z,13.22
2022-10-11T19:03:59.243Z,13.19
2022-10-11T19:06:34.804Z,13.19
2022-10-11T19:09:06.476Z,13.15
2022-10-11T19:11:33.459Z,13.09
2022-10-11T19:14:01.390Z,13.06
2022-10-11T19:16:29.880Z,13.09
2022-10-11T19:18:57.445Z,13.04
2022-10-11T19:21:24.402Z,12.83
2022-10-11T19:23:51.298Z,12.78
2022-10-11T19:26:20.703Z,12.77
2022-10-11T19:28:48.212Z,12.87
2022-10-11T19:31:17.115Z,12.88
2022-10-11T19:33:45.385Z,12.82
2022-10-11T19:36:14.136Z,12.76
2022-10-11T19:38:44.338Z,12.73
2022-10-11T19:41:11.677Z,12.73
2022-10-11T19:43:38.359Z,12.61
2022-10-11T19:46:07.673Z,12.64
2022-10-11T19:48:38.168Z,12.59
2022-10-11T19:51:10.312Z,12.62
2022-10-11T19:53:37.003Z,12.64
2022-10-11T19:56:05.981Z,12.57
2022-10-11T19:58:32.932Z,12.49
2022-10-11T20:01:05.233Z,12.43
2022-10-11T20:03:32.064Z,12.47
2022-10-11T20:06:00.501Z,12.43
2022-10-11T20:08:28.585Z,12.32
2022-10-11T20:10:55.413Z,12.28
2022-10-11T20:13:22.140Z,12.34
2022-10-11T20:15:49.155Z,12.30
2022-10-11T20:18:15.839Z,12.39
2022-10-11T20:20:55.682Z,12.31
2022-10-11T20:23:27.353Z,12.28
2022-10-11T20:26:15.110Z,12.28
2022-10-11T20:28:43.007Z,12.24
2022-10-11T20:31:33.438Z,12.14
2022-10-11T20:34:02.452Z,12.13
2022-10-11T20:36:32.455Z,12.10
2022-10-11T20:38:59.975Z,12.15
2022-10-11T20:41:29.274Z,11.94
2022-10-11T20:43:57.800Z,11.92
2022-10-11T20:46:28.163Z,11.92
2022-10-11T20:49:01.378Z,11.94
2022-10-11T20:51:29.600Z,11.91
2022-10-11T20:53:56.601Z,11.91
2022-10-11T20:56:23.627Z,11.87
2022-10-11T20:58:52.453Z,11.84
2022-10-11T21:01:21.536Z,11.83
2022-10-11T21:03:48.329Z,11.85
2022-10-11T21:06:14.947Z,11.82
2022-10-11T21:08:41.687Z,11.75
2022-10-11T21:11:08.764Z,11.76
2022-10-11T21:13:35.570Z,11.71
2022-10-11T21:16:12.921Z,11.71
2022-10-11T21:18:39.768Z,11.58
2022-10-11T21:21:11.442Z,11.48
2022-10-11T21:23:38.500Z,11.45
2022-10-11T21:26:07.589Z,11.47
2022-10-11T21:28:34.700Z,11.42
2022-10-11T21:31:09.256Z,11.52
2022-10-11T21:33:36.622Z,11.55
2022-10-11T21:36:05.335Z,11.63
2022-10-11T21:38:32.460Z,11.49
2022-10-11T21:40:59.081Z,11.41
2022-10-11T21:43:25.686Z,11.36
2022-10-11T21:45:52.283Z,11.47
2022-10-11T21:48:18.891Z,11.38
2022-10-11T21:50:52.554Z,11.50
2022-10-11T21:53:19.232Z,11.49
2022-10-11T21:55:45.833Z,11.50
2022-10-11T21:58:12.535Z,11.55
2022-10-11T22:00:39.403Z,11.45
2022-10-11T22:03:05.982Z,11.53
2022-10-11T22:05:32.790Z,11.49
2022-10-11T22:07:59.437Z,11.52
2022-10-11T22:10:26.106Z,11.58
2022-10-11T22:12:52.880Z,11.53
2022-10-11T22:15:19.425Z,11.45
2022-10-11T22:17:46.372Z,11.34
2022-10-11T22:20:12.942Z,11.26
2022-10-11T22:22:39.539Z,11.26
2022-10-11T22:25:06.617Z,11.31
2022-10-11T22:27:33.240Z,11.23
2022-10-11T22:29:59.859Z,11.25
2022-10-11T22:32:26.587Z,11.28
2022-10-11T22:34:53.194Z,11.26
2022-10-11T22:37:19.793Z,11.24
2022-10-11T22:39:46.517Z,11.22
2022-10-11T22:42:13.155Z,11.27
2022-10-11T22:44:39.876Z,11.15
2022-10-11T22:47:06.504Z,11.19
2022-10-11T22:49:39.161Z,11.27
2022-10-11T22:52:05.763Z,11.19
2022-10-11T22:54:34.015Z,10.93
2022-10-11T22:57:00.736Z,10.93
2022-10-11T22:59:27.357Z,11.01
2022-10-11T23:01:53.964Z,11.09
2022-10-11T23:04:21.015Z,11.12
2022-10-11T23:06:47.581Z,11.13
2022-10-11T23:09:14.237Z,11.10
2022-10-11T23:11:40.840Z,10.98
2022-10-11T23:14:08.012Z,11.04
2022-10-11T23:16:34.638Z,10.95
2022-10-11T23:19:01.268Z,10.87
2022-10-11T23:21:27.876Z,10.79
2022-10-11T23:23:55.353Z,10.76
2022-10-11T23:26:21.979Z,10.83
2022-10-11T23:28:48.715Z,10.86
2022-10-11T23:31:17.596Z,10.88
2022-10-11T23:33:45.174Z,10.79
2022-10-11T23:36:15.890Z,10.68
2022-10-11T23:38:42.817Z,10.61
2022-10-11T23:41:09.415Z,10.65
2022-10-11T23:43:36.032Z,10.58
2022-10-11T23:46:02.711Z,10.53
2022-10-11T23:48:29.366Z,10.54
2022-10-11T23:50:55.929Z,10.55
2022-10-11T23:53:22.540Z,10.55
2022-10-11T23:55:49.172Z,10.51
2022-10-11T23:58:15.806Z,10.50
